aviador You're here:

OIMM Decoded Metar

MASHHAD (AFB/CIV in IRAN
Report Time2017-11-25 07:00:00
UTC Time2017-11-25 07:35:44
Flight Rules vfr VFR
Wind040° at 08 kt
W.Decomp.*RWY 31: 0.4 kt HW 8.0 kt RCW
W.Rank040° ranks 17
Current wind is above 040° avg. (7.6)
Visibility9999 m
Phenomena:N/A
Clouds:Few 030 Hf
Expected CloudBase > 3,600 ft AGL from Temp-Dew spread
CeilingNone
Temp11°C (ISA +2)
Dew Point02°C (54% RH)
AAT6.5°C
QNH1018 hPa
Density Alt3,435 ft
Elevation3,215 ft
Report Wrong Elevation
Raw Report
METAR OIMM 250700Z 04008KT 9999 FEW030 11/02 Q1018 A3007=

Extra information for OIMM:More info

Metar Taf Metar & Taf Last 4 Metars F.Rules Stats Wind Profile Meteogram Temp Stats Airport Information Weather charts Add Link Nearby VenuesMetar ALERT Operation Metar Decoded Social comments